createdAt,value
2023-03-24T00:02:00.140Z,98473.86
2023-03-24T00:04:32.995Z,98482.80
2023-03-24T00:07:05.124Z,98475.30
2023-03-24T00:09:37.705Z,98480.70
2023-03-24T00:12:11.733Z,98477.22
2023-03-24T00:14:45.588Z,98473.37
2023-03-24T00:17:19.174Z,98472.17
2023-03-24T00:19:51.335Z,98472.48
2023-03-24T00:22:23.513Z,98450.16
2023-03-24T00:24:55.980Z,98454.92
2023-03-24T00:27:29.590Z,98445.38
2023-03-24T00:30:03.488Z,98453.14
2023-03-24T00:32:38.403Z,98452.30
2023-03-24T00:35:12.998Z,98440.84
2023-03-24T00:37:46.077Z,98437.16
2023-03-24T00:40:21.014Z,98428.47
2023-03-24T00:42:53.400Z,98425.84
2023-03-24T00:45:26.203Z,98422.05
2023-03-24T00:47:58.556Z,98419.53
2023-03-24T00:50:32.217Z,98410.70
2023-03-24T00:53:04.335Z,98401.06
2023-03-24T00:55:38.135Z,98407.23
2023-03-24T00:58:10.377Z,98402.95
2023-03-24T01:00:42.752Z,98407.86
2023-03-24T01:03:15.556Z,98416.55
2023-03-24T01:05:48.630Z,98433.25
2023-03-24T01:08:21.801Z,98424.20
2023-03-24T01:10:54.253Z,98432.92
2023-03-24T01:13:29.419Z,98425.77
2023-03-24T01:16:01.441Z,98418.63
2023-03-24T01:18:35.052Z,98421.95
2023-03-24T01:21:07.553Z,98413.98
2023-03-24T01:23:42.069Z,98412.80
2023-03-24T01:26:14.180Z,98407.44
2023-03-24T01:28:46.236Z,98411.02
2023-03-24T01:31:18.215Z,98411.84
2023-03-24T01:33:50.497Z,98406.84
2023-03-24T01:36:22.764Z,98395.81
2023-03-24T01:38:54.753Z,98402.45
2023-03-24T01:41:28.976Z,98389.23
2023-03-24T01:44:01.676Z,98395.37
2023-03-24T01:46:34.308Z,98385.91
2023-03-24T01:49:08.694Z,98388.67
2023-03-24T01:51:46.261Z,98373.77
2023-03-24T01:54:45.248Z,98381.41
2023-03-24T01:57:29.892Z,98377.73
2023-03-24T02:00:05.321Z,98377.41
2023-03-24T02:02:49.764Z,98380.41
2023-03-24T02:05:26.593Z,98380.19
2023-03-24T02:08:07.478Z,98373.99
2023-03-24T02:10:39.883Z,98368.86
2023-03-24T02:13:12.497Z,98358.37
2023-03-24T02:15:51.160Z,98358.18
2023-03-24T02:18:29.138Z,98357.00
2023-03-24T02:21:13.395Z,98346.05
2023-03-24T02:24:00.551Z,98347.27
2023-03-24T02:26:47.382Z,98350.04
2023-03-24T02:29:47.858Z,98345.17
2023-03-24T02:32:46.651Z,98345.76
2023-03-24T02:35:21.603Z,98344.58
2023-03-24T02:38:05.458Z,98337.41
2023-03-24T02:40:40.585Z,98338.14
2023-03-24T02:43:38.141Z,98331.71
2023-03-24T02:46:22.091Z,98324.54
2023-03-24T02:49:13.486Z,98331.23
2023-03-24T02:52:06.785Z,98316.21
2023-03-24T02:54:55.027Z,98324.78
2023-03-24T02:57:41.611Z,98326.23
2023-03-24T03:00:42.181Z,98320.97
2023-03-24T03:03:24.411Z,98313.83
2023-03-24T03:06:00.799Z,98319.08
2023-03-24T03:08:35.177Z,98313.83
2023-03-24T03:11:09.830Z,98301.52
2023-03-24T03:13:47.398Z,98301.41
2023-03-24T03:16:28.331Z,98297.01
2023-03-24T03:19:03.588Z,98294.50
2023-03-24T03:21:39.261Z,98295.34
2023-03-24T03:24:15.617Z,98284.96
2023-03-24T03:26:49.649Z,98297.12
2023-03-24T03:29:24.152Z,98275.42
2023-03-24T03:32:01.914Z,98274.34
2023-03-24T03:35:09.324Z,98283.16
2023-03-24T03:38:04.300Z,98274.70
2023-03-24T03:40:56.948Z,98283.53
2023-03-24T03:43:33.179Z,98283.53
2023-03-24T03:46:09.272Z,98283.77
2023-03-24T03:48:42.721Z,98280.31
2023-03-24T03:51:16.349Z,98283.89
2023-03-24T03:53:53.298Z,98289.00
2023-03-24T03:56:29.435Z,98281.33
2023-03-24T03:59:08.653Z,98281.77
2023-03-24T04:01:42.397Z,98289.81
2023-03-24T04:04:28.106Z,98275.11
2023-03-24T04:07:28.632Z,98284.63
2023-03-24T04:10:08.713Z,98288.74
2023-03-24T04:13:05.739Z,98291.83
2023-03-24T04:15:57.920Z,98284.86
2023-03-24T04:19:07.108Z,98288.26
2023-03-24T04:21:52.045Z,98280.12
2023-03-24T04:24:36.656Z,98275.52
2023-03-24T04:27:25.986Z,98282.16
2023-03-24T04:30:23.640Z,98280.60
2023-03-24T04:33:01.742Z,98279.96
2023-03-24T04:35:42.654Z,98268.03
2023-03-24T04:38:26.563Z,98271.50
2023-03-24T04:41:02.068Z,98274.33
2023-03-24T04:43:38.375Z,98267.43
2023-03-24T04:46:12.697Z,98271.00
2023-03-24T04:48:52.794Z,98264.91
2023-03-24T04:51:30.007Z,98267.43
2023-03-24T04:54:08.325Z,98264.70
2023-03-24T04:56:56.037Z,98263.15
2023-03-24T04:59:31.429Z,98265.98
2023-03-24T05:02:04.628Z,98265.13
2023-03-24T05:04:38.536Z,98268.59
2023-03-24T05:07:20.270Z,98271.10
2023-03-24T05:09:54.332Z,98272.27
2023-03-24T05:12:26.708Z,98261.80
2023-03-24T05:15:01.320Z,98260.45
2023-03-24T05:17:34.439Z,98269.14
2023-03-24T05:20:11.912Z,98272.58
2023-03-24T05:22:46.821Z,98269.86
2023-03-24T05:25:20.716Z,98274.98
2023-03-24T05:27:53.729Z,98272.95
2023-03-24T05:30:27.820Z,98275.28
2023-03-24T05:33:02.010Z,98280.41
2023-03-24T05:35:34.548Z,98278.98
2023-03-24T05:38:06.962Z,98276.63
2023-03-24T05:40:39.505Z,98272.21
2023-03-24T05:43:16.791Z,98270.55
2023-03-24T05:45:50.970Z,98272.00
2023-03-24T05:48:31.077Z,98268.33
2023-03-24T05:51:05.347Z,98269.28
2023-03-24T05:53:37.780Z,98262.98
2023-03-24T05:56:15.061Z,98261.11
2023-03-24T05:59:06.051Z,98267.80
2023-03-24T06:01:45.673Z,98260.66
2023-03-24T06:04:21.071Z,98269.22
2023-03-24T06:06:56.040Z,98268.30
2023-03-24T06:09:33.118Z,98252.69
2023-03-24T06:12:07.519Z,98266.49
2023-03-24T06:14:41.464Z,98256.66
2023-03-24T06:17:15.881Z,98262.60
2023-03-24T06:19:50.239Z,98258.21
2023-03-24T06:22:43.517Z,98255.80
2023-03-24T06:25:24.457Z,98267.94
2023-03-24T06:27:59.973Z,98264.16
2023-03-24T06:30:32.424Z,98262.49
2023-03-24T06:33:07.107Z,98260.72
2023-03-24T06:35:39.803Z,98252.12
2023-03-24T06:38:14.426Z,98259.16
2023-03-24T06:40:47.132Z,98246.78
2023-03-24T06:43:19.834Z,98256.09
2023-03-24T06:45:52.466Z,98262.67
2023-03-24T06:48:26.791Z,98252.90
2023-03-24T06:51:02.067Z,98257.81
2023-03-24T06:53:34.640Z,98255.09
2023-03-24T06:56:07.781Z,98250.34
2023-03-24T06:58:41.097Z,98252.84
2023-03-24T07:01:15.081Z,98256.72
2023-03-24T07:04:01.462Z,98253.55
2023-03-24T07:06:50.918Z,98254.02
2023-03-24T07:09:14.726Z,98251.52
2023-03-24T07:11:47.428Z,98246.48
2023-03-24T07:14:22.268Z,98255.09
2023-03-24T07:16:55.202Z,98256.15
2023-03-24T07:19:31.381Z,98252.69
2023-03-24T07:22:04.804Z,98257.92
2023-03-24T07:24:38.688Z,98262.31
2023-03-24T07:27:12.649Z,98256.97
2023-03-24T07:29:45.303Z,98258.88
2023-03-24T07:32:25.061Z,98260.75
2023-03-24T07:34:58.425Z,98260.16
2023-03-24T07:37:30.980Z,98275.02
2023-03-24T07:40:04.828Z,98269.08
2023-03-24T07:42:37.033Z,98272.41
2023-03-24T07:45:27.631Z,98278.17
2023-03-24T07:48:04.924Z,98276.72
2023-03-24T07:50:40.414Z,98274.20
2023-03-24T07:53:18.834Z,98277.78
2023-03-24T07:55:51.338Z,98281.85
2023-03-24T07:58:26.849Z,98275.55
2023-03-24T08:01:14.164Z,98273.31
2023-03-24T08:03:49.550Z,98279.16
2023-03-24T08:06:23.692Z,98281.67
2023-03-24T08:08:57.036Z,98285.35
2023-03-24T08:11:30.137Z,98283.55
2023-03-24T08:14:03.432Z,98287.23
2023-03-24T08:16:36.669Z,98288.08
2023-03-24T08:19:09.411Z,98295.94
2023-03-24T08:21:41.829Z,98288.68
2023-03-24T08:24:13.953Z,98296.44
2023-03-24T08:26:46.895Z,98297.28
2023-03-24T08:29:19.083Z,98299.90
2023-03-24T08:31:51.163Z,98296.22
2023-03-24T08:34:25.180Z,98296.11
2023-03-24T08:36:57.571Z,98307.08
2023-03-24T08:39:31.212Z,98291.42
2023-03-24T08:42:03.631Z,98290.73
2023-03-24T08:44:36.067Z,98294.44
2023-03-24T08:47:08.064Z,98300.31
2023-03-24T08:49:40.322Z,98300.42
2023-03-24T08:52:12.712Z,98303.14
2023-03-24T08:54:44.885Z,98301.00
2023-03-24T08:57:18.063Z,98297.42
2023-03-24T08:59:51.511Z,98305.77
2023-03-24T09:02:24.222Z,98298.64
2023-03-24T09:04:56.928Z,98302.70
2023-03-24T09:07:28.938Z,98305.73
2023-03-24T09:10:01.197Z,98299.91
2023-03-24T09:12:33.604Z,98308.26
2023-03-24T09:15:10.100Z,98307.30
2023-03-24T09:17:43.868Z,98316.97
2023-03-24T09:20:17.782Z,98313.50
2023-03-24T09:22:50.161Z,98312.69
2023-03-24T09:25:23.537Z,98320.41
2023-03-24T09:27:57.171Z,98320.89
2023-03-24T09:30:31.319Z,98325.39
2023-03-24T09:33:05.267Z,98322.91
2023-03-24T09:35:37.529Z,98321.59
2023-03-24T09:38:11.221Z,98318.86
2023-03-24T09:40:44.290Z,98323.77
2023-03-24T09:43:24.981Z,98332.86
2023-03-24T09:45:59.958Z,98334.75
2023-03-24T09:48:44.244Z,98342.02
2023-03-24T09:51:25.074Z,98351.88
2023-03-24T09:54:03.081Z,98347.69
2023-03-24T09:56:41.135Z,98345.36
2023-03-24T09:59:35.987Z,98350.13
2023-03-24T10:02:20.439Z,98347.94
2023-03-24T10:04:52.669Z,98346.87
2023-03-24T10:07:36.288Z,98357.35
2023-03-24T10:10:16.947Z,98350.28
2023-03-24T10:12:50.992Z,98348.61
2023-03-24T10:15:37.364Z,98359.17
2023-03-24T10:18:32.802Z,98357.37
2023-03-24T10:21:13.962Z,98353.64
2023-03-24T10:23:57.846Z,98345.77
2023-03-24T10:26:50.327Z,98348.67
2023-03-24T10:29:37.071Z,98354.19
2023-03-24T10:32:24.478Z,98358.78
2023-03-24T10:35:04.120Z,98354.51
2023-03-24T10:37:36.968Z,98362.05
2023-03-24T10:40:18.565Z,98357.39
2023-03-24T10:43:06.940Z,98362.20
2023-03-24T10:45:30.698Z,98354.84
2023-03-24T10:48:04.643Z,98365.74
2023-03-24T10:50:38.325Z,98371.61
2023-03-24T10:53:18.786Z,98370.52
2023-03-24T10:55:51.181Z,98373.03
2023-03-24T10:58:38.049Z,98377.11
2023-03-24T11:01:27.534Z,98380.44
2023-03-24T11:04:07.687Z,98377.33
2023-03-24T11:06:40.057Z,98376.26
2023-03-24T11:09:18.290Z,98382.95
2023-03-24T11:11:51.792Z,98390.11
2023-03-24T11:14:27.265Z,98392.02
2023-03-24T11:17:16.360Z,98388.31
2023-03-24T11:19:56.787Z,98384.03
2023-03-24T11:22:28.737Z,98388.17
2023-03-24T11:25:01.290Z,98387.20
2023-03-24T11:27:34.349Z,98381.88
2023-03-24T11:30:08.473Z,98378.83
2023-03-24T11:32:42.401Z,98376.48
2023-03-24T11:35:17.998Z,98372.34
2023-03-24T11:37:50.408Z,98383.95
2023-03-24T11:40:25.552Z,98389.81
2023-03-24T11:43:00.204Z,98393.55
2023-03-24T11:45:44.209Z,98396.83
2023-03-24T11:48:19.575Z,98395.25
2023-03-24T11:50:53.862Z,98393.69
2023-03-24T11:53:29.424Z,98398.40
2023-03-24T11:56:16.191Z,98400.94
2023-03-24T11:58:51.411Z,98411.20
2023-03-24T12:01:29.307Z,98418.41
2023-03-24T12:04:21.214Z,98410.75
2023-03-24T12:07:14.790Z,98416.47
2023-03-24T12:09:58.705Z,98416.33
2023-03-24T12:12:45.191Z,98410.31
2023-03-24T12:15:35.300Z,98417.30
2023-03-24T12:18:15.841Z,98425.92
2023-03-24T12:21:10.026Z,98422.27
2023-03-24T12:23:54.179Z,98428.88
2023-03-24T12:26:34.187Z,98436.00
2023-03-24T12:29:24.379Z,98430.95
2023-03-24T12:32:18.963Z,98435.16
2023-03-24T12:35:03.077Z,98432.50
2023-03-24T12:37:47.454Z,98436.26
2023-03-24T12:40:37.729Z,98429.68
2023-03-24T12:43:30.925Z,98430.54
2023-03-24T12:46:17.835Z,98430.95
2023-03-24T12:49:00.064Z,98438.66
2023-03-24T12:51:54.603Z,98433.92
2023-03-24T12:54:35.274Z,98435.28
2023-03-24T12:57:10.272Z,98437.83
2023-03-24T12:59:47.658Z,98432.25
2023-03-24T13:02:46.547Z,98424.28
2023-03-24T13:05:21.720Z,98428.91
2023-03-24T13:07:58.124Z,98434.77
2023-03-24T13:10:32.958Z,98442.91
2023-03-24T13:13:14.761Z,98438.48
2023-03-24T13:15:58.683Z,98440.20
2023-03-24T13:18:50.597Z,98435.19
2023-03-24T13:21:29.491Z,98424.89
2023-03-24T13:24:12.876Z,98415.81
2023-03-24T13:27:05.803Z,98425.05
2023-03-24T13:29:48.435Z,98430.77
2023-03-24T13:32:26.737Z,98433.32
2023-03-24T13:35:34.545Z,98431.61
2023-03-24T13:38:21.984Z,98431.92
2023-03-24T13:40:56.526Z,98440.07
2023-03-24T13:43:29.753Z,98439.78
2023-03-24T13:46:10.065Z,98456.91
2023-03-24T13:48:58.044Z,98448.31
2023-03-24T13:51:35.323Z,98450.35
2023-03-24T13:54:16.422Z,98445.80
2023-03-24T13:56:57.623Z,98452.52
2023-03-24T14:00:02.899Z,98454.39
2023-03-24T14:02:54.234Z,98456.63
2023-03-24T14:06:05.903Z,98464.75
2023-03-24T14:08:56.454Z,98458.20
2023-03-24T14:11:41.804Z,98458.20
2023-03-24T14:14:20.740Z,98457.72
2023-03-24T14:17:08.054Z,98471.48
2023-03-24T14:20:05.403Z,98474.25
2023-03-24T14:22:44.063Z,98482.17
2023-03-24T14:25:24.926Z,98480.38
2023-03-24T14:28:22.891Z,98484.33
2023-03-24T14:31:16.163Z,98483.19
2023-03-24T14:34:02.764Z,98495.73
2023-03-24T14:36:41.242Z,98489.46
2023-03-24T14:39:36.094Z,98492.02
2023-03-24T14:42:30.491Z,98499.59
2023-03-24T14:45:14.074Z,98504.19
2023-03-24T14:47:43.352Z,98512.21
2023-03-24T14:50:24.000Z,98511.42
2023-03-24T14:53:01.723Z,98498.52
2023-03-24T14:55:36.074Z,98515.50
2023-03-24T14:58:36.060Z,98511.00
2023-03-24T15:01:11.381Z,98513.63
2023-03-24T15:03:48.354Z,98521.16
2023-03-24T15:06:25.704Z,98521.91
2023-03-24T15:09:01.354Z,98523.80
2023-03-24T15:11:36.487Z,98521.78
2023-03-24T15:14:16.073Z,98538.88
2023-03-24T15:16:53.709Z,98541.99
2023-03-24T15:19:31.528Z,98546.86
2023-03-24T15:22:06.786Z,98545.30
2023-03-24T15:24:40.294Z,98554.35
2023-03-24T15:27:25.078Z,98559.84
2023-03-24T15:30:00.413Z,98559.36
2023-03-24T15:32:34.917Z,98560.66
2023-03-24T15:35:09.401Z,98565.80
2023-03-24T15:37:43.367Z,98565.76
2023-03-24T15:40:32.782Z,98566.64
2023-03-24T15:43:09.838Z,98571.59
2023-03-24T15:45:57.803Z,98577.32
2023-03-24T15:48:26.623Z,98572.40
2023-03-24T15:51:04.305Z,98580.86
2023-03-24T15:53:51.683Z,98584.66
2023-03-24T15:56:32.050Z,98589.27
2023-03-24T15:59:13.665Z,98586.65
2023-03-24T16:01:46.328Z,98599.28
2023-03-24T16:04:23.451Z,98606.45
2023-03-24T16:06:58.075Z,98605.81
2023-03-24T16:09:31.229Z,98598.05
2023-03-24T16:12:05.843Z,98614.86
2023-03-24T16:14:38.877Z,98619.41
2023-03-24T16:17:11.352Z,98610.78
2023-03-24T16:19:43.441Z,98620.47
2023-03-24T16:22:15.485Z,98619.61
2023-03-24T16:24:47.700Z,98618.47
2023-03-24T16:27:20.046Z,98621.34
2023-03-24T16:29:52.757Z,98627.66
2023-03-24T16:32:24.987Z,98627.66
2023-03-24T16:34:57.157Z,98635.63
2023-03-24T16:37:29.175Z,98642.05
2023-03-24T16:40:03.582Z,98641.30
2023-03-24T16:42:34.587Z,98644.42
2023-03-24T16:45:07.447Z,98646.34
2023-03-24T16:47:39.972Z,98655.69
2023-03-24T16:50:38.783Z,98666.18
2023-03-24T16:53:11.163Z,98663.14
2023-03-24T16:55:45.311Z,98659.16
2023-03-24T16:58:18.389Z,98662.23
2023-03-24T17:00:51.849Z,98667.48
2023-03-24T17:03:24.433Z,98667.58
2023-03-24T17:05:57.167Z,98667.33
2023-03-24T17:08:30.219Z,98651.20
2023-03-24T17:11:03.008Z,98658.77
2023-03-24T17:13:35.479Z,98669.70
2023-03-24T17:16:09.937Z,98666.02
2023-03-24T17:18:42.261Z,98674.38
2023-03-24T17:21:17.596Z,98664.83
2023-03-24T17:23:51.051Z,98669.98
2023-03-24T17:26:24.181Z,98678.44
2023-03-24T17:28:56.812Z,98674.97
2023-03-24T17:31:29.093Z,98672.24
2023-03-24T17:34:08.537Z,98672.73
2023-03-24T17:36:35.156Z,98671.34
2023-03-24T17:39:08.924Z,98685.48
2023-03-24T17:41:42.175Z,98681.90
2023-03-24T17:44:14.331Z,98689.22
2023-03-24T17:46:46.529Z,98696.82
2023-03-24T17:49:18.639Z,98701.96
2023-03-24T17:51:50.847Z,98706.79
2023-03-24T17:54:23.095Z,98706.59
2023-03-24T17:56:55.093Z,98709.22
2023-03-24T17:59:27.186Z,98712.44
2023-03-24T18:01:59.357Z,98717.31
2023-03-24T18:04:33.121Z,98715.92
2023-03-24T18:07:07.730Z,98724.62
2023-03-24T18:09:44.389Z,98720.52
2023-03-24T18:12:16.612Z,98715.66
2023-03-24T18:14:48.762Z,98716.88
2023-03-24T18:17:21.987Z,98716.24
2023-03-24T18:19:54.264Z,98719.98
2023-03-24T18:22:27.713Z,98719.35
2023-03-24T18:25:01.415Z,98715.34
2023-03-24T18:27:33.796Z,98713.75
2023-03-24T18:30:07.724Z,98731.39
2023-03-24T18:32:40.797Z,98731.60
2023-03-24T18:35:17.852Z,98736.92
2023-03-24T18:37:49.905Z,98728.14
2023-03-24T18:40:22.080Z,98731.60
2023-03-24T18:42:54.030Z,98731.39
2023-03-24T18:45:26.442Z,98734.95
2023-03-24T18:47:58.506Z,98726.28
2023-03-24T18:50:30.666Z,98726.38
2023-03-24T18:53:03.421Z,98732.64
2023-03-24T18:55:35.778Z,98729.17
2023-03-24T18:58:09.351Z,98734.67
2023-03-24T19:00:43.181Z,98722.92
2023-03-24T19:03:15.395Z,98724.13
2023-03-24T19:05:49.716Z,98717.38
2023-03-24T19:08:21.977Z,98716.06
2023-03-24T19:10:58.112Z,98723.28
2023-03-24T19:13:30.535Z,98724.28
2023-03-24T19:16:02.713Z,98726.43
2023-03-24T19:18:34.930Z,98715.47
2023-03-24T19:21:07.932Z,98726.30
2023-03-24T19:23:40.056Z,98724.63
2023-03-24T19:26:12.575Z,98722.11
2023-03-24T19:28:45.018Z,98723.95
2023-03-24T19:31:19.290Z,98722.11
2023-03-24T19:33:52.443Z,98719.49
2023-03-24T19:36:26.414Z,98719.41
2023-03-24T19:38:58.322Z,98724.80
2023-03-24T19:41:30.489Z,98721.25
2023-03-24T19:44:02.861Z,98729.86
2023-03-24T19:46:34.981Z,98720.05
2023-03-24T19:49:07.165Z,98729.39
2023-03-24T19:51:39.220Z,98721.29
2023-03-24T19:54:11.536Z,98713.71
2023-03-24T19:56:43.673Z,98711.09
2023-03-24T19:59:15.877Z,98715.47
2023-03-24T20:01:48.125Z,98714.73
2023-03-24T20:04:20.489Z,98727.98
2023-03-24T20:06:52.803Z,98717.82
2023-03-24T20:09:24.896Z,98723.05
2023-03-24T20:11:57.025Z,98719.02
2023-03-24T20:14:47.277Z,98711.53
2023-03-24T20:17:21.621Z,98714.43
2023-03-24T20:19:54.378Z,98706.67
2023-03-24T20:22:26.097Z,98711.35
2023-03-24T20:24:58.197Z,98699.30
2023-03-24T20:27:30.998Z,98699.39
2023-03-24T20:30:03.505Z,98698.63
2023-03-24T20:32:35.998Z,98697.97
2023-03-24T20:35:09.234Z,98696.38
2023-03-24T20:37:41.538Z,98695.45
2023-03-24T20:40:13.854Z,98690.22
2023-03-24T20:42:46.188Z,98686.11
2023-03-24T20:45:18.396Z,98680.15
2023-03-24T20:47:50.873Z,98680.23
2023-03-24T20:50:23.058Z,98677.54
2023-03-24T20:52:54.978Z,98674.92
2023-03-24T20:55:27.533Z,98677.34
2023-03-24T20:58:01.371Z,98675.41
2023-03-24T21:00:33.409Z,98669.07
2023-03-24T21:03:06.263Z,98668.95
2023-03-24T21:05:38.746Z,98663.47
2023-03-24T21:08:10.728Z,98660.94
2023-03-24T21:10:43.019Z,98655.46
2023-03-24T21:13:16.958Z,98654.52
2023-03-24T21:15:49.472Z,98656.11
2023-03-24T21:18:22.118Z,98655.93
2023-03-24T21:20:58.210Z,98660.05
2023-03-24T21:23:37.986Z,98663.30
2023-03-24T21:26:15.898Z,98666.47
2023-03-24T21:28:47.879Z,98667.14
2023-03-24T21:31:30.656Z,98666.97
2023-03-24T21:34:02.644Z,98672.20
2023-03-24T21:36:35.676Z,98659.01
2023-03-24T21:39:09.308Z,98658.19
2023-03-24T21:41:41.477Z,98662.39
2023-03-24T21:44:13.533Z,98657.80
2023-03-24T21:46:47.240Z,98644.64
2023-03-24T21:49:19.389Z,98650.72
2023-03-24T21:51:53.105Z,98650.52
2023-03-24T21:54:26.922Z,98651.36
2023-03-24T21:57:01.817Z,98654.53
2023-03-24T21:59:34.041Z,98638.03
2023-03-24T22:02:08.322Z,98644.37
2023-03-24T22:04:41.823Z,98647.34
2023-03-24T22:07:16.605Z,98650.81
2023-03-24T22:09:50.306Z,98656.86
2023-03-24T22:12:22.333Z,98653.42
2023-03-24T22:14:54.375Z,98639.42
2023-03-24T22:17:26.827Z,98639.51
2023-03-24T22:19:59.103Z,98628.87
2023-03-24T22:22:33.420Z,98626.26
2023-03-24T22:25:07.246Z,98630.45
2023-03-24T22:27:39.351Z,98631.30
2023-03-24T22:30:13.068Z,98631.30
2023-03-24T22:32:46.190Z,98620.85
2023-03-24T22:35:18.533Z,98625.87
2023-03-24T22:37:50.616Z,98631.30
2023-03-24T22:40:22.975Z,98628.97
2023-03-24T22:42:54.826Z,98629.36
2023-03-24T22:45:27.174Z,98625.42
2023-03-24T22:47:59.199Z,98622.44
2023-03-24T22:50:31.668Z,98621.88
2023-03-24T22:53:03.733Z,98614.31
2023-03-24T22:55:35.847Z,98600.95
2023-03-24T22:58:07.792Z,98608.33
2023-03-24T23:00:41.152Z,98600.96
2023-03-24T23:03:13.544Z,98600.41
2023-03-24T23:05:47.165Z,98596.94
2023-03-24T23:08:19.497Z,98602.33
2023-03-24T23:10:51.807Z,98609.44
2023-03-24T23:13:25.587Z,98605.41
2023-03-24T23:15:57.819Z,98615.20
2023-03-24T23:18:30.512Z,98605.78
2023-03-24T23:21:11.247Z,98605.19
2023-03-24T23:23:44.080Z,98601.75
2023-03-24T23:26:26.505Z,98605.27
2023-03-24T23:28:51.446Z,98607.80
2023-03-24T23:31:26.338Z,98607.80
2023-03-24T23:33:59.338Z,98602.86
2023-03-24T23:36:32.986Z,98601.08
2023-03-24T23:39:05.538Z,98600.26
2023-03-24T23:41:37.708Z,98602.09
2023-03-24T23:44:11.537Z,98597.81
2023-03-24T23:46:43.549Z,98591.75
2023-03-24T23:49:15.883Z,98581.13
2023-03-24T23:51:47.892Z,98594.19
2023-03-24T23:54:20.078Z,98600.82
2023-03-24T23:56:53.909Z,98585.08
2023-03-24T23:59:26.234Z,98587.52
